sensor_id;sensor_type;location;lat;lon;timestamp;P1;durP1;ratioP1;P2;durP2;ratioP2
6951;SDS011;3515;50.138;8.502;2022-09-24T00:01:22;2;;;0;;
6951;SDS011;3515;50.138;8.502;2022-09-24T00:03:48;3;;;0;;
6951;SDS011;3515;50.138;8.502;2022-09-24T00:06:12;3;;;0;;
6951;SDS011;3515;50.138;8.502;2022-09-24T00:08:37;3;;;0;;
6951;SDS011;3515;50.138;8.502;2022-09-24T00:11:03;3;;;0;;
6951;SDS011;3515;50.138;8.502;2022-09-24T00:13:28;3;;;0;;
6951;SDS011;3515;50.138;8.502;2022-09-24T00:15:53;3;;;0;;
6951;SDS011;3515;50.138;8.502;2022-09-24T00:18:18;3;;;0;;
6951;SDS011;3515;50.138;8.502;2022-09-24T00:20:44;3;;;0;;
6951;SDS011;3515;50.138;8.502;2022-09-24T00:23:10;2;;;0;;
6951;SDS011;3515;50.138;8.502;2022-09-24T00:25:38;2;;;0;;
6951;SDS011;3515;50.138;8.502;2022-09-24T00:28:00;2;;;0;;
6951;SDS011;3515;50.138;8.502;2022-09-24T00:30:25;2;;;0;;
6951;SDS011;3515;50.138;8.502;2022-09-24T00:32:50;2;;;0;;
6951;SDS011;3515;50.138;8.502;2022-09-24T00:35:16;2;;;0;;
6951;SDS011;3515;50.138;8.502;2022-09-24T00:37:41;2;;;0;;
6951;SDS011;3515;50.138;8.502;2022-09-24T00:40:07;2;;;0;;
6951;SDS011;3515;50.138;8.502;2022-09-24T00:42:32;2;;;0;;
6951;SDS011;3515;50.138;8.502;2022-09-24T00:44:57;2;;;0;;
6951;SDS011;3515;50.138;8.502;2022-09-24T00:47:26;2;;;0;;
6951;SDS011;3515;50.138;8.502;2022-09-24T00:49:47;2;;;0;;
6951;SDS011;3515;50.138;8.502;2022-09-24T00:52:13;2;;;0;;
6951;SDS011;3515;50.138;8.502;2022-09-24T00:54:38;2;;;0;;
6951;SDS011;3515;50.138;8.502;2022-09-24T00:57:03;2;;;0;;
6951;SDS011;3515;50.138;8.502;2022-09-24T00:59:29;2;;;0;;
6951;SDS011;3515;50.138;8.502;2022-09-24T01:01:54;2;;;0;;
6951;SDS011;3515;50.138;8.502;2022-09-24T01:04:20;2;;;0;;
6951;SDS011;3515;50.138;8.502;2022-09-24T01:06:45;2;;;0;;
6951;SDS011;3515;50.138;8.502;2022-09-24T01:09:10;2;;;0;;
6951;SDS011;3515;50.138;8.502;2022-09-24T01:11:39;2;;;0;;
6951;SDS011;3515;50.138;8.502;2022-09-24T01:14:05;2;;;0;;
6951;SDS011;3515;50.138;8.502;2022-09-24T01:16:28;2;;;0;;
6951;SDS011;3515;50.138;8.502;2022-09-24T01:18:53;2;;;0;;
6951;SDS011;3515;50.138;8.502;2022-09-24T01:21:22;2;;;0;;
6951;SDS011;3515;50.138;8.502;2022-09-24T01:23:45;2;;;0;;
6951;SDS011;3515;50.138;8.502;2022-09-24T01:26:14;3;;;0;;
6951;SDS011;3515;50.138;8.502;2022-09-24T01:28:35;2;;;0;;
6951;SDS011;3515;50.138;8.502;2022-09-24T01:30:59;2;;;0;;
6951;SDS011;3515;50.138;8.502;2022-09-24T01:33:23;2;;;0;;
6951;SDS011;3515;50.138;8.502;2022-09-24T01:35:49;2;;;0;;
6951;SDS011;3515;50.138;8.502;2022-09-24T01:38:15;2;;;0;;
6951;SDS011;3515;50.138;8.502;2022-09-24T01:40:39;2;;;0;;
6951;SDS011;3515;50.138;8.502;2022-09-24T01:43:05;2;;;0;;
6951;SDS011;3515;50.138;8.502;2022-09-24T01:45:30;2;;;0;;
6951;SDS011;3515;50.138;8.502;2022-09-24T01:47:56;3;;;0;;
6951;SDS011;3515;50.138;8.502;2022-09-24T01:50:21;3;;;0;;
6951;SDS011;3515;50.138;8.502;2022-09-24T01:52:48;3;;;0;;
6951;SDS011;3515;50.138;8.502;2022-09-24T01:55:12;3;;;0;;
6951;SDS011;3515;50.138;8.502;2022-09-24T01:57:37;3;;;0;;
6951;SDS011;3515;50.138;8.502;2022-09-24T02:00:04;3;;;0;;
6951;SDS011;3515;50.138;8.502;2022-09-24T02:02:29;2;;;0;;
6951;SDS011;3515;50.138;8.502;2022-09-24T02:04:58;2;;;0;;
6951;SDS011;3515;50.138;8.502;2022-09-24T02:07:23;2;;;0;;
6951;SDS011;3515;50.138;8.502;2022-09-24T02:09:48;2;;;0;;
6951;SDS011;3515;50.138;8.502;2022-09-24T02:12:14;2;;;0;;
6951;SDS011;3515;50.138;8.502;2022-09-24T02:14:39;2;;;0;;
6951;SDS011;3515;50.138;8.502;2022-09-24T02:17:04;3;;;0;;
6951;SDS011;3515;50.138;8.502;2022-09-24T02:19:29;3;;;0;;
6951;SDS011;3515;50.138;8.502;2022-09-24T02:21:55;3;;;0;;
6951;SDS011;3515;50.138;8.502;2022-09-24T02:24:21;3;;;0;;
6951;SDS011;3515;50.138;8.502;2022-09-24T02:26:45;3;;;0;;
6951;SDS011;3515;50.138;8.502;2022-09-24T02:29:10;3;;;0;;
6951;SDS011;3515;50.138;8.502;2022-09-24T02:31:36;3;;;0;;
6951;SDS011;3515;50.138;8.502;2022-09-24T02:34:03;3;;;0;;
6951;SDS011;3515;50.138;8.502;2022-09-24T02:36:27;3;;;0;;
6951;SDS011;3515;50.138;8.502;2022-09-24T02:38:52;2;;;0;;
6951;SDS011;3515;50.138;8.502;2022-09-24T02:41:17;2;;;0;;
6951;SDS011;3515;50.138;8.502;2022-09-24T02:43:43;3;;;0;;
6951;SDS011;3515;50.138;8.502;2022-09-24T02:46:08;3;;;0;;
6951;SDS011;3515;50.138;8.502;2022-09-24T02:48:33;3;;;0;;
6951;SDS011;3515;50.138;8.502;2022-09-24T02:50:59;3;;;0;;
6951;SDS011;3515;50.138;8.502;2022-09-24T02:53:24;3;;;0;;
6951;SDS011;3515;50.138;8.502;2022-09-24T02:55:50;3;;;0;;
6951;SDS011;3515;50.138;8.502;2022-09-24T02:58:15;3;;;0;;
6951;SDS011;3515;50.138;8.502;2022-09-24T03:00:40;3;;;0;;
6951;SDS011;3515;50.138;8.502;2022-09-24T03:03:05;3;;;0;;
6951;SDS011;3515;50.138;8.502;2022-09-24T03:05:31;3;;;0;;
6951;SDS011;3515;50.138;8.502;2022-09-24T03:07:56;3;;;0;;
6951;SDS011;3515;50.138;8.502;2022-09-24T03:10:21;2;;;0;;
6951;SDS011;3515;50.138;8.502;2022-09-24T03:12:47;2;;;0;;
6951;SDS011;3515;50.138;8.502;2022-09-24T03:15:12;2;;;0;;
6951;SDS011;3515;50.138;8.502;2022-09-24T03:17:37;2;;;0;;
6951;SDS011;3515;50.138;8.502;2022-09-24T03:20:09;2;;;0;;
6951;SDS011;3515;50.138;8.502;2022-09-24T03:22:28;2;;;0;;
6951;SDS011;3515;50.138;8.502;2022-09-24T03:24:53;2;;;0;;
6951;SDS011;3515;50.138;8.502;2022-09-24T03:27:19;2;;;0;;
6951;SDS011;3515;50.138;8.502;2022-09-24T03:29:44;2;;;0;;
6951;SDS011;3515;50.138;8.502;2022-09-24T03:32:09;2;;;0;;
6951;SDS011;3515;50.138;8.502;2022-09-24T03:34:35;2;;;0;;
6951;SDS011;3515;50.138;8.502;2022-09-24T03:37:00;2;;;0;;
6951;SDS011;3515;50.138;8.502;2022-09-24T03:39:25;3;;;0;;
6951;SDS011;3515;50.138;8.502;2022-09-24T03:41:51;2;;;0;;
6951;SDS011;3515;50.138;8.502;2022-09-24T03:44:16;2;;;0;;
6951;SDS011;3515;50.138;8.502;2022-09-24T03:46:41;2;;;0;;
6951;SDS011;3515;50.138;8.502;2022-09-24T03:49:07;2;;;0;;
6951;SDS011;3515;50.138;8.502;2022-09-24T03:51:32;2;;;0;;
6951;SDS011;3515;50.138;8.502;2022-09-24T03:53:58;2;;;0;;
6951;SDS011;3515;50.138;8.502;2022-09-24T03:56:23;2;;;0;;
6951;SDS011;3515;50.138;8.502;2022-09-24T03:58:48;2;;;0;;
6951;SDS011;3515;50.138;8.502;2022-09-24T04:01:14;2;;;0;;
6951;SDS011;3515;50.138;8.502;2022-09-24T04:03:39;2;;;0;;
6951;SDS011;3515;50.138;8.502;2022-09-24T04:06:05;2;;;0;;
6951;SDS011;3515;50.138;8.502;2022-09-24T04:08:30;2;;;0;;
6951;SDS011;3515;50.138;8.502;2022-09-24T04:10:55;2;;;0;;
6951;SDS011;3515;50.138;8.502;2022-09-24T04:13:21;2;;;0;;
6951;SDS011;3515;50.138;8.502;2022-09-24T04:15:46;2;;;0;;
6951;SDS011;3515;50.138;8.502;2022-09-24T04:18:11;2;;;0;;
6951;SDS011;3515;50.138;8.502;2022-09-24T04:20:37;3;;;0;;
6951;SDS011;3515;50.138;8.502;2022-09-24T04:23:02;2;;;0;;
6951;SDS011;3515;50.138;8.502;2022-09-24T04:25:28;2;;;0;;
6951;SDS011;3515;50.138;8.502;2022-09-24T04:27:53;2;;;0;;
6951;SDS011;3515;50.138;8.502;2022-09-24T04:30:18;3;;;0;;
6951;SDS011;3515;50.138;8.502;2022-09-24T04:32:43;3;;;0;;
6951;SDS011;3515;50.138;8.502;2022-09-24T04:35:09;3;;;0;;
6951;SDS011;3515;50.138;8.502;2022-09-24T04:37:34;3;;;0;;
6951;SDS011;3515;50.138;8.502;2022-09-24T04:39:59;3;;;0;;
6951;SDS011;3515;50.138;8.502;2022-09-24T04:42:27;3;;;0;;
6951;SDS011;3515;50.138;8.502;2022-09-24T04:44:52;3;;;0;;
6951;SDS011;3515;50.138;8.502;2022-09-24T04:47:18;3;;;0;;
6951;SDS011;3515;50.138;8.502;2022-09-24T04:49:43;3;;;0;;
6951;SDS011;3515;50.138;8.502;2022-09-24T04:52:08;3;;;0;;
6951;SDS011;3515;50.138;8.502;2022-09-24T04:54:34;3;;;0;;
6951;SDS011;3515;50.138;8.502;2022-09-24T04:56:59;3;;;0;;
6951;SDS011;3515;50.138;8.502;2022-09-24T04:59:24;3;;;0;;
6951;SDS011;3515;50.138;8.502;2022-09-24T05:01:50;3;;;0;;
6951;SDS011;3515;50.138;8.502;2022-09-24T05:04:15;3;;;0;;
6951;SDS011;3515;50.138;8.502;2022-09-24T05:06:40;3;;;0;;
6951;SDS011;3515;50.138;8.502;2022-09-24T05:09:06;3;;;0;;
6951;SDS011;3515;50.138;8.502;2022-09-24T05:11:31;4;;;0;;
6951;SDS011;3515;50.138;8.502;2022-09-24T05:13:56;4;;;0;;
6951;SDS011;3515;50.138;8.502;2022-09-24T05:16:22;3;;;0;;
6951;SDS011;3515;50.138;8.502;2022-09-24T05:18:47;3;;;0;;
6951;SDS011;3515;50.138;8.502;2022-09-24T05:21:12;3;;;0;;
6951;SDS011;3515;50.138;8.502;2022-09-24T05:23:38;3;;;0;;
6951;SDS011;3515;50.138;8.502;2022-09-24T05:26:03;3;;;0;;
6951;SDS011;3515;50.138;8.502;2022-09-24T05:28:28;3;;;0;;
6951;SDS011;3515;50.138;8.502;2022-09-24T05:30:55;3;;;0;;
6951;SDS011;3515;50.138;8.502;2022-09-24T05:33:19;3;;;0;;
6951;SDS011;3515;50.138;8.502;2022-09-24T05:35:44;3;;;0;;
6951;SDS011;3515;50.138;8.502;2022-09-24T05:38:10;3;;;0;;
6951;SDS011;3515;50.138;8.502;2022-09-24T05:40:35;3;;;0;;
6951;SDS011;3515;50.138;8.502;2022-09-24T05:43:01;4;;;0;;
6951;SDS011;3515;50.138;8.502;2022-09-24T05:45:26;4;;;0;;
6951;SDS011;3515;50.138;8.502;2022-09-24T05:47:51;3;;;0;;
6951;SDS011;3515;50.138;8.502;2022-09-24T05:50:17;3;;;0;;
6951;SDS011;3515;50.138;8.502;2022-09-24T05:52:42;4;;;1;;
6951;SDS011;3515;50.138;8.502;2022-09-24T05:55:08;6;;;1;;
6951;SDS011;3515;50.138;8.502;2022-09-24T05:57:33;7;;;2;;
6951;SDS011;3515;50.138;8.502;2022-09-24T05:59:58;9;;;2;;
6951;SDS011;3515;50.138;8.502;2022-09-24T06:02:24;10;;;3;;
6951;SDS011;3515;50.138;8.502;2022-09-24T06:04:49;12;;;4;;
6951;SDS011;3515;50.138;8.502;2022-09-24T06:07:15;14;;;5;;
6951;SDS011;3515;50.138;8.502;2022-09-24T06:09:40;16;;;6;;
6951;SDS011;3515;50.138;8.502;2022-09-24T06:12:06;17;;;7;;
6951;SDS011;3515;50.138;8.502;2022-09-24T06:14:31;18;;;8;;
6951;SDS011;3515;50.138;8.502;2022-09-24T06:16:56;19;;;9;;
6951;SDS011;3515;50.138;8.502;2022-09-24T06:19:22;21;;;10;;
6951;SDS011;3515;50.138;8.502;2022-09-24T06:21:47;22;;;11;;
6951;SDS011;3515;50.138;8.502;2022-09-24T06:24:12;23;;;11;;
6951;SDS011;3515;50.138;8.502;2022-09-24T06:26:38;23;;;12;;
6951;SDS011;3515;50.138;8.502;2022-09-24T06:29:03;24;;;12;;
6951;SDS011;3515;50.138;8.502;2022-09-24T06:31:29;24;;;12;;
6951;SDS011;3515;50.138;8.502;2022-09-24T06:33:54;25;;;13;;
6951;SDS011;3515;50.138;8.502;2022-09-24T06:36:19;25;;;13;;
6951;SDS011;3515;50.138;8.502;2022-09-24T06:38:49;25;;;13;;
6951;SDS011;3515;50.138;8.502;2022-09-24T06:41:10;26;;;14;;
6951;SDS011;3515;50.138;8.502;2022-09-24T06:43:36;24;;;12;;
6951;SDS011;3515;50.138;8.502;2022-09-24T06:46:01;22;;;11;;
6951;SDS011;3515;50.138;8.502;2022-09-24T06:48:27;22;;;11;;
6951;SDS011;3515;50.138;8.502;2022-09-24T06:50:52;23;;;12;;
6951;SDS011;3515;50.138;8.502;2022-09-24T06:53:17;24;;;13;;
6951;SDS011;3515;50.138;8.502;2022-09-24T06:55:42;25;;;14;;
6951;SDS011;3515;50.138;8.502;2022-09-24T06:58:08;23;;;12;;
6951;SDS011;3515;50.138;8.502;2022-09-24T07:00:34;26;;;14;;
6951;SDS011;3515;50.138;8.502;2022-09-24T07:02:59;32;;;18;;
6951;SDS011;3515;50.138;8.502;2022-09-24T07:05:24;39;;;22;;
6951;SDS011;3515;50.138;8.502;2022-09-24T07:07:49;39;;;22;;
6951;SDS011;3515;50.138;8.502;2022-09-24T07:10:14;36;;;20;;
6951;SDS011;3515;50.138;8.502;2022-09-24T07:12:44;40;;;22;;
6951;SDS011;3515;50.138;8.502;2022-09-24T07:15:09;45;;;24;;
6951;SDS011;3515;50.138;8.502;2022-09-24T07:17:35;55;;;30;;
6951;SDS011;3515;50.138;8.502;2022-09-24T07:20:01;55;;;29;;
6951;SDS011;3515;50.138;8.502;2022-09-24T07:22:26;59;;;31;;
6951;SDS011;3515;50.138;8.502;2022-09-24T07:24:52;64;;;32;;
6951;SDS011;3515;50.138;8.502;2022-09-24T07:27:17;74;;;37;;
6951;SDS011;3515;50.138;8.502;2022-09-24T07:29:42;77;;;39;;
6951;SDS011;3515;50.138;8.502;2022-09-24T07:32:08;78;;;39;;
6951;SDS011;3515;50.138;8.502;2022-09-24T07:34:33;73;;;37;;
6951;SDS011;3515;50.138;8.502;2022-09-24T07:36:58;71;;;36;;
6951;SDS011;3515;50.138;8.502;2022-09-24T07:39:24;77;;;39;;
6951;SDS011;3515;50.138;8.502;2022-09-24T07:41:49;71;;;36;;
6951;SDS011;3515;50.138;8.502;2022-09-24T07:44:14;62;;;33;;
6951;SDS011;3515;50.138;8.502;2022-09-24T07:46:39;63;;;33;;
6951;SDS011;3515;50.138;8.502;2022-09-24T07:49:05;72;;;36;;
6951;SDS011;3515;50.138;8.502;2022-09-24T07:51:30;68;;;35;;
6951;SDS011;3515;50.138;8.502;2022-09-24T07:53:56;76;;;38;;
6951;SDS011;3515;50.138;8.502;2022-09-24T07:56:21;78;;;39;;
6951;SDS011;3515;50.138;8.502;2022-09-24T07:58:47;72;;;36;;
6951;SDS011;3515;50.138;8.502;2022-09-24T08:01:12;78;;;39;;
6951;SDS011;3515;50.138;8.502;2022-09-24T08:03:37;87;;;42;;
6951;SDS011;3515;50.138;8.502;2022-09-24T08:06:02;79;;;39;;
6951;SDS011;3515;50.138;8.502;2022-09-24T08:08:27;70;;;36;;
6951;SDS011;3515;50.138;8.502;2022-09-24T08:10:53;65;;;32;;
6951;SDS011;3515;50.138;8.502;2022-09-24T08:13:24;53;;;26;;
6951;SDS011;3515;50.138;8.502;2022-09-24T08:15:54;41;;;21;;
6951;SDS011;3515;50.138;8.502;2022-09-24T08:18:14;36;;;17;;
6951;SDS011;3515;50.138;8.502;2022-09-24T08:20:39;26;;;12;;
6951;SDS011;3515;50.138;8.502;2022-09-24T08:23:06;13;;;6;;
6951;SDS011;3515;50.138;8.502;2022-09-24T08:25:30;9;;;3;;
6951;SDS011;3515;50.138;8.502;2022-09-24T08:27:55;4;;;0;;
6951;SDS011;3515;50.138;8.502;2022-09-24T08:30:20;4;;;0;;
6951;SDS011;3515;50.138;8.502;2022-09-24T08:32:45;4;;;0;;
6951;SDS011;3515;50.138;8.502;2022-09-24T08:35:11;4;;;0;;
6951;SDS011;3515;50.138;8.502;2022-09-24T08:37:36;4;;;0;;
6951;SDS011;3515;50.138;8.502;2022-09-24T08:40:01;5;;;0;;
6951;SDS011;3515;50.138;8.502;2022-09-24T08:42:34;4;;;0;;
6951;SDS011;3515;50.138;8.502;2022-09-24T08:44:56;4;;;0;;
6951;SDS011;3515;50.138;8.502;2022-09-24T08:47:27;4;;;0;;
6951;SDS011;3515;50.138;8.502;2022-09-24T08:49:47;4;;;0;;
6951;SDS011;3515;50.138;8.502;2022-09-24T08:52:14;4;;;0;;
6951;SDS011;3515;50.138;8.502;2022-09-24T08:54:37;4;;;0;;
6951;SDS011;3515;50.138;8.502;2022-09-24T08:57:04;4;;;0;;
6951;SDS011;3515;50.138;8.502;2022-09-24T08:59:28;2;;;0;;
6951;SDS011;3515;50.138;8.502;2022-09-24T09:01:56;2;;;0;;
6951;SDS011;3515;50.138;8.502;2022-09-24T09:04:24;2;;;0;;
6951;SDS011;3515;50.138;8.502;2022-09-24T09:06:49;2;;;0;;
6951;SDS011;3515;50.138;8.502;2022-09-24T09:09:10;2;;;0;;
6951;SDS011;3515;50.138;8.502;2022-09-24T09:11:34;2;;;0;;
6951;SDS011;3515;50.138;8.502;2022-09-24T09:14:05;2;;;0;;
6951;SDS011;3515;50.138;8.502;2022-09-24T09:16:30;2;;;0;;
6951;SDS011;3515;50.138;8.502;2022-09-24T09:18:55;2;;;0;;
6951;SDS011;3515;50.138;8.502;2022-09-24T09:21:23;2;;;0;;
6951;SDS011;3515;50.138;8.502;2022-09-24T09:23:46;2;;;0;;
6951;SDS011;3515;50.138;8.502;2022-09-24T09:26:10;3;;;0;;
6951;SDS011;3515;50.138;8.502;2022-09-24T09:28:35;3;;;0;;
6951;SDS011;3515;50.138;8.502;2022-09-24T09:31:03;2;;;0;;
6951;SDS011;3515;50.138;8.502;2022-09-24T09:33:30;2;;;0;;
6951;SDS011;3515;50.138;8.502;2022-09-24T09:35:54;2;;;0;;
6951;SDS011;3515;50.138;8.502;2022-09-24T09:38:18;3;;;0;;
6951;SDS011;3515;50.138;8.502;2022-09-24T09:40:42;3;;;0;;
6951;SDS011;3515;50.138;8.502;2022-09-24T09:43:08;4;;;0;;
6951;SDS011;3515;50.138;8.502;2022-09-24T09:45:33;4;;;0;;
6951;SDS011;3515;50.138;8.502;2022-09-24T09:47:58;4;;;0;;
6951;SDS011;3515;50.138;8.502;2022-09-24T09:50:25;4;;;0;;
6951;SDS011;3515;50.138;8.502;2022-09-24T09:52:48;4;;;0;;
6951;SDS011;3515;50.138;8.502;2022-09-24T09:55:22;4;;;0;;
6951;SDS011;3515;50.138;8.502;2022-09-24T09:57:38;5;;;0;;
6951;SDS011;3515;50.138;8.502;2022-09-24T10:00:04;4;;;0;;
6951;SDS011;3515;50.138;8.502;2022-09-24T10:02:29;4;;;0;;
6951;SDS011;3515;50.138;8.502;2022-09-24T10:05:02;4;;;0;;
6951;SDS011;3515;50.138;8.502;2022-09-24T10:07:19;4;;;0;;
6951;SDS011;3515;50.138;8.502;2022-09-24T10:09:45;4;;;0;;
6951;SDS011;3515;50.138;8.502;2022-09-24T10:12:14;4;;;0;;
6951;SDS011;3515;50.138;8.502;2022-09-24T10:14:35;4;;;0;;
6951;SDS011;3515;50.138;8.502;2022-09-24T10:17:00;3;;;0;;
6951;SDS011;3515;50.138;8.502;2022-09-24T10:19:26;4;;;0;;
6951;SDS011;3515;50.138;8.502;2022-09-24T10:21:51;4;;;0;;
6951;SDS011;3515;50.138;8.502;2022-09-24T10:24:18;4;;;0;;
6951;SDS011;3515;50.138;8.502;2022-09-24T10:26:42;5;;;0;;
6951;SDS011;3515;50.138;8.502;2022-09-24T10:29:08;5;;;0;;
6951;SDS011;3515;50.138;8.502;2022-09-24T10:31:33;5;;;0;;
6951;SDS011;3515;50.138;8.502;2022-09-24T10:33:57;4;;;0;;
6951;SDS011;3515;50.138;8.502;2022-09-24T10:36:23;5;;;0;;
6951;SDS011;3515;50.138;8.502;2022-09-24T10:38:48;5;;;0;;
6951;SDS011;3515;50.138;8.502;2022-09-24T10:41:14;5;;;0;;
6951;SDS011;3515;50.138;8.502;2022-09-24T10:43:38;5;;;0;;
6951;SDS011;3515;50.138;8.502;2022-09-24T10:46:07;5;;;0;;
6951;SDS011;3515;50.138;8.502;2022-09-24T10:48:33;5;;;0;;
6951;SDS011;3515;50.138;8.502;2022-09-24T10:50:56;5;;;0;;
6951;SDS011;3515;50.138;8.502;2022-09-24T10:53:24;5;;;0;;
6951;SDS011;3515;50.138;8.502;2022-09-24T10:55:49;5;;;0;;
6951;SDS011;3515;50.138;8.502;2022-09-24T10:58:15;4;;;0;;
6951;SDS011;3515;50.138;8.502;2022-09-24T11:00:37;3;;;0;;
6951;SDS011;3515;50.138;8.502;2022-09-24T11:05:27;3;;;0;;
6951;SDS011;3515;50.138;8.502;2022-09-24T11:07:56;3;;;0;;
6951;SDS011;3515;50.138;8.502;2022-09-24T11:10:22;3;;;0;;
6951;SDS011;3515;50.138;8.502;2022-09-24T11:12:44;3;;;0;;
6951;SDS011;3515;50.138;8.502;2022-09-24T11:15:12;3;;;0;;
6951;SDS011;3515;50.138;8.502;2022-09-24T11:17:33;3;;;0;;
6951;SDS011;3515;50.138;8.502;2022-09-24T11:20:15;3;;;0;;
6951;SDS011;3515;50.138;8.502;2022-09-24T11:22:30;3;;;0;;
6951;SDS011;3515;50.138;8.502;2022-09-24T11:24:59;3;;;0;;
6951;SDS011;3515;50.138;8.502;2022-09-24T11:27:30;3;;;0;;
6951;SDS011;3515;50.138;8.502;2022-09-24T11:29:47;3;;;0;;
6951;SDS011;3515;50.138;8.502;2022-09-24T11:32:10;3;;;0;;
6951;SDS011;3515;50.138;8.502;2022-09-24T11:34:38;3;;;0;;
6951;SDS011;3515;50.138;8.502;2022-09-24T11:37:06;3;;;0;;
6951;SDS011;3515;50.138;8.502;2022-09-24T11:39:29;3;;;0;;
6951;SDS011;3515;50.138;8.502;2022-09-24T11:41:51;3;;;0;;
6951;SDS011;3515;50.138;8.502;2022-09-24T11:44:23;3;;;0;;
6951;SDS011;3515;50.138;8.502;2022-09-24T11:46:46;2;;;0;;
6951;SDS011;3515;50.138;8.502;2022-09-24T11:49:12;2;;;0;;
6951;SDS011;3515;50.138;8.502;2022-09-24T11:51:35;2;;;0;;
6951;SDS011;3515;50.138;8.502;2022-09-24T11:53:56;2;;;0;;
6951;SDS011;3515;50.138;8.502;2022-09-24T11:56:22;2;;;0;;
6951;SDS011;3515;50.138;8.502;2022-09-24T11:58:47;3;;;0;;
6951;SDS011;3515;50.138;8.502;2022-09-24T12:01:13;3;;;0;;
6951;SDS011;3515;50.138;8.502;2022-09-24T12:03:38;4;;;0;;
6951;SDS011;3515;50.138;8.502;2022-09-24T12:06:04;4;;;0;;
6951;SDS011;3515;50.138;8.502;2022-09-24T12:08:28;4;;;0;;
6951;SDS011;3515;50.138;8.502;2022-09-24T12:10:54;4;;;0;;
6951;SDS011;3515;50.138;8.502;2022-09-24T12:13:19;4;;;0;;
6951;SDS011;3515;50.138;8.502;2022-09-24T12:15:45;3;;;0;;
6951;SDS011;3515;50.138;8.502;2022-09-24T12:18:11;3;;;0;;
6951;SDS011;3515;50.138;8.502;2022-09-24T12:20:37;3;;;0;;
6951;SDS011;3515;50.138;8.502;2022-09-24T12:23:00;2;;;0;;
6951;SDS011;3515;50.138;8.502;2022-09-24T12:25:25;2;;;0;;
6951;SDS011;3515;50.138;8.502;2022-09-24T12:27:49;2;;;0;;
6951;SDS011;3515;50.138;8.502;2022-09-24T12:30:20;2;;;0;;
6951;SDS011;3515;50.138;8.502;2022-09-24T12:32:41;2;;;0;;
6951;SDS011;3515;50.138;8.502;2022-09-24T12:35:07;2;;;0;;
6951;SDS011;3515;50.138;8.502;2022-09-24T12:37:32;2;;;0;;
6951;SDS011;3515;50.138;8.502;2022-09-24T12:39:58;3;;;0;;
6951;SDS011;3515;50.138;8.502;2022-09-24T12:42:22;3;;;0;;
6951;SDS011;3515;50.138;8.502;2022-09-24T12:44:48;3;;;0;;
6951;SDS011;3515;50.138;8.502;2022-09-24T12:47:14;3;;;0;;
6951;SDS011;3515;50.138;8.502;2022-09-24T12:49:38;3;;;0;;
6951;SDS011;3515;50.138;8.502;2022-09-24T12:52:14;3;;;0;;
6951;SDS011;3515;50.138;8.502;2022-09-24T12:54:29;3;;;0;;
6951;SDS011;3515;50.138;8.502;2022-09-24T12:59:23;3;;;0;;
6951;SDS011;3515;50.138;8.502;2022-09-24T13:01:44;3;;;0;;
6951;SDS011;3515;50.138;8.502;2022-09-24T13:06:36;3;;;0;;
6951;SDS011;3515;50.138;8.502;2022-09-24T13:09:00;3;;;0;;
6951;SDS011;3515;50.138;8.502;2022-09-24T13:11:27;3;;;0;;
6951;SDS011;3515;50.138;8.502;2022-09-24T13:13:56;3;;;0;;
6951;SDS011;3515;50.138;8.502;2022-09-24T13:16:16;3;;;0;;
6951;SDS011;3515;50.138;8.502;2022-09-24T13:18:41;3;;;0;;
6951;SDS011;3515;50.138;8.502;2022-09-24T13:21:06;3;;;0;;
6951;SDS011;3515;50.138;8.502;2022-09-24T13:23:41;3;;;0;;
6951;SDS011;3515;50.138;8.502;2022-09-24T13:25:57;4;;;0;;
6951;SDS011;3515;50.138;8.502;2022-09-24T13:28:23;4;;;0;;
6951;SDS011;3515;50.138;8.502;2022-09-24T13:30:48;5;;;0;;
6951;SDS011;3515;50.138;8.502;2022-09-24T13:33:16;5;;;0;;
6951;SDS011;3515;50.138;8.502;2022-09-24T13:35:41;4;;;0;;
6951;SDS011;3515;50.138;8.502;2022-09-24T13:38:05;5;;;0;;
6951;SDS011;3515;50.138;8.502;2022-09-24T13:40:30;5;;;0;;
6951;SDS011;3515;50.138;8.502;2022-09-24T13:42:54;5;;;0;;
6951;SDS011;3515;50.138;8.502;2022-09-24T13:45:19;3;;;0;;
6951;SDS011;3515;50.138;8.502;2022-09-24T13:47:45;5;;;0;;
6951;SDS011;3515;50.138;8.502;2022-09-24T13:50:13;4;;;0;;
6951;SDS011;3515;50.138;8.502;2022-09-24T13:52:35;4;;;0;;
6951;SDS011;3515;50.138;8.502;2022-09-24T13:55:00;4;;;0;;
6951;SDS011;3515;50.138;8.502;2022-09-24T13:57:26;5;;;0;;
6951;SDS011;3515;50.138;8.502;2022-09-24T14:02:21;5;;;0;;
6951;SDS011;3515;50.138;8.502;2022-09-24T14:04:41;5;;;0;;
6951;SDS011;3515;50.138;8.502;2022-09-24T14:07:06;4;;;0;;
6951;SDS011;3515;50.138;8.502;2022-09-24T14:09:32;4;;;0;;
6951;SDS011;3515;50.138;8.502;2022-09-24T14:11:58;4;;;0;;
6951;SDS011;3515;50.138;8.502;2022-09-24T14:14:22;4;;;0;;
6951;SDS011;3515;50.138;8.502;2022-09-24T14:16:47;4;;;0;;
6951;SDS011;3515;50.138;8.502;2022-09-24T14:19:13;4;;;0;;
6951;SDS011;3515;50.138;8.502;2022-09-24T14:21:38;4;;;0;;
6951;SDS011;3515;50.138;8.502;2022-09-24T14:24:03;4;;;0;;
6951;SDS011;3515;50.138;8.502;2022-09-24T14:26:29;3;;;0;;
6951;SDS011;3515;50.138;8.502;2022-09-24T14:28:53;3;;;0;;
6951;SDS011;3515;50.138;8.502;2022-09-24T14:31:19;3;;;0;;
6951;SDS011;3515;50.138;8.502;2022-09-24T14:33:44;3;;;0;;
6951;SDS011;3515;50.138;8.502;2022-09-24T14:36:09;2;;;0;;
6951;SDS011;3515;50.138;8.502;2022-09-24T14:38:35;2;;;0;;
6951;SDS011;3515;50.138;8.502;2022-09-24T14:41:00;2;;;0;;
6951;SDS011;3515;50.138;8.502;2022-09-24T14:43:25;2;;;0;;
6951;SDS011;3515;50.138;8.502;2022-09-24T14:45:50;2;;;0;;
6951;SDS011;3515;50.138;8.502;2022-09-24T14:48:17;3;;;0;;
6951;SDS011;3515;50.138;8.502;2022-09-24T14:50:41;3;;;0;;
6951;SDS011;3515;50.138;8.502;2022-09-24T14:55:35;3;;;0;;
6951;SDS011;3515;50.138;8.502;2022-09-24T14:57:56;3;;;0;;
6951;SDS011;3515;50.138;8.502;2022-09-24T15:00:22;3;;;0;;
6951;SDS011;3515;50.138;8.502;2022-09-24T15:02:48;3;;;0;;
6951;SDS011;3515;50.138;8.502;2022-09-24T15:05:12;3;;;0;;
6951;SDS011;3515;50.138;8.502;2022-09-24T15:07:37;3;;;0;;
6951;SDS011;3515;50.138;8.502;2022-09-24T15:10:03;3;;;0;;
6951;SDS011;3515;50.138;8.502;2022-09-24T15:12:29;4;;;0;;
6951;SDS011;3515;50.138;8.502;2022-09-24T15:14:54;4;;;0;;
6951;SDS011;3515;50.138;8.502;2022-09-24T15:17:20;4;;;0;;
6951;SDS011;3515;50.138;8.502;2022-09-24T15:19:44;4;;;0;;
6951;SDS011;3515;50.138;8.502;2022-09-24T15:22:09;4;;;0;;
6951;SDS011;3515;50.138;8.502;2022-09-24T15:24:34;4;;;0;;
6951;SDS011;3515;50.138;8.502;2022-09-24T15:27:00;3;;;0;;
6951;SDS011;3515;50.138;8.502;2022-09-24T15:29:25;2;;;0;;
6951;SDS011;3515;50.138;8.502;2022-09-24T15:31:50;3;;;0;;
6951;SDS011;3515;50.138;8.502;2022-09-24T15:34:15;3;;;0;;
6951;SDS011;3515;50.138;8.502;2022-09-24T15:36:40;4;;;0;;
6951;SDS011;3515;50.138;8.502;2022-09-24T15:39:06;3;;;0;;
6951;SDS011;3515;50.138;8.502;2022-09-24T15:41:31;4;;;0;;
6951;SDS011;3515;50.138;8.502;2022-09-24T15:43:56;5;;;0;;
6951;SDS011;3515;50.138;8.502;2022-09-24T15:46:21;5;;;0;;
6951;SDS011;3515;50.138;8.502;2022-09-24T15:48:47;6;;;0;;
6951;SDS011;3515;50.138;8.502;2022-09-24T15:51:12;5;;;0;;
6951;SDS011;3515;50.138;8.502;2022-09-24T15:53:37;5;;;0;;
6951;SDS011;3515;50.138;8.502;2022-09-24T15:56:02;4;;;0;;
6951;SDS011;3515;50.138;8.502;2022-09-24T15:58:28;4;;;0;;
6951;SDS011;3515;50.138;8.502;2022-09-24T16:00:53;4;;;0;;
6951;SDS011;3515;50.138;8.502;2022-09-24T16:03:20;3;;;0;;
6951;SDS011;3515;50.138;8.502;2022-09-24T16:05:44;2;;;0;;
6951;SDS011;3515;50.138;8.502;2022-09-24T16:08:09;4;;;0;;
6951;SDS011;3515;50.138;8.502;2022-09-24T16:10:34;4;;;0;;
6951;SDS011;3515;50.138;8.502;2022-09-24T16:12:59;4;;;0;;
6951;SDS011;3515;50.138;8.502;2022-09-24T16:15:24;4;;;0;;
6951;SDS011;3515;50.138;8.502;2022-09-24T16:17:50;4;;;0;;
6951;SDS011;3515;50.138;8.502;2022-09-24T16:20:15;4;;;0;;
6951;SDS011;3515;50.138;8.502;2022-09-24T16:22:40;4;;;0;;
6951;SDS011;3515;50.138;8.502;2022-09-24T16:25:06;4;;;0;;
6951;SDS011;3515;50.138;8.502;2022-09-24T16:27:36;3;;;0;;
6951;SDS011;3515;50.138;8.502;2022-09-24T16:30:01;3;;;0;;
6951;SDS011;3515;50.138;8.502;2022-09-24T16:32:26;2;;;0;;
6951;SDS011;3515;50.138;8.502;2022-09-24T16:34:51;3;;;0;;
6951;SDS011;3515;50.138;8.502;2022-09-24T16:37:17;3;;;0;;
6951;SDS011;3515;50.138;8.502;2022-09-24T16:39:42;3;;;0;;
6951;SDS011;3515;50.138;8.502;2022-09-24T16:42:07;3;;;0;;
6951;SDS011;3515;50.138;8.502;2022-09-24T16:44:32;3;;;0;;